Time;durP1;ratioP1;P1;durP2;ratioP2;P2;SDS_P1;SDS_P2;PMS_P1;PMS_P2;Temp;Humidity;BMP_temperature;BMP_pressure;BME280_temperature;BME280_humidity;BME280_pressure;Samples;Min_cycle;Max_cycle;Signal;HPM_P1;HPM_P2
2023/04/01 00:00:25;;;;;;;5.90;4.40;;;;;;;9.29;100.00;97754.97;5052981;28;20035;-77
2023/04/01 00:02:50;;;;;;;6.20;4.60;;;;;;;9.21;100.00;97750.31;5052744;28;20025;-77
2023/04/01 00:05:16;;;;;;;6.57;4.55;;;;;;;9.18;100.00;97760.91;5053004;28;20057;-77
2023/04/01 00:07:42;;;;;;;6.68;3.97;;;;;;;9.22;100.00;97764.94;5052861;28;20500;-77
2023/04/01 00:10:10;;;;;;;6.97;3.75;;;;;;;9.15;100.00;97763.75;5052617;28;20031;-77
2023/04/01 00:12:35;;;;;;;6.40;4.10;;;;;;;9.19;100.00;97770.38;5052488;28;20052;-77
2023/04/01 00:15:01;;;;;;;6.82;4.57;;;;;;;9.11;100.00;97759.69;5052637;28;20576;-77
2023/04/01 00:17:27;;;;;;;5.70;4.32;;;;;;;9.13;100.00;97771.63;5052628;28;20051;-76
2023/04/01 00:19:54;;;;;;;6.40;4.55;;;;;;;9.13;100.00;97773.41;5052633;28;20028;-77
2023/04/01 00:22:20;;;;;;;7.93;4.78;;;;;;;9.12;100.00;97774.34;5052576;28;20033;-77
2023/04/01 00:24:45;;;;;;;5.35;4.82;;;;;;;8.97;100.00;97753.72;5052665;28;20081;-77
2023/04/01 00:27:10;;;;;;;7.32;4.40;;;;;;;9.06;100.00;97778.22;5052643;28;20098;-76
2023/04/01 00:29:36;;;;;;;6.35;3.92;;;;;;;8.96;100.00;97761.59;5052053;28;20070;-77
2023/04/01 00:32:01;;;;;;;6.50;4.13;;;;;;;9.07;100.00;97784.22;5052263;28;20033;-77
2023/04/01 00:34:26;;;;;;;9.32;4.35;;;;;;;8.92;100.00;97755.78;5052485;28;20017;-77
2023/04/01 00:36:53;;;;;;;4.90;3.45;;;;;;;8.96;100.00;97748.63;5052226;28;20033;-77
2023/04/01 00:39:20;;;;;;;6.20;3.63;;;;;;;8.96;100.00;97752.03;5052107;28;20021;-77
2023/04/01 00:41:46;;;;;;;5.38;3.50;;;;;;;9.11;100.00;97778.72;5052227;28;20025;-77
2023/04/01 00:44:17;;;;;;;5.15;3.63;;;;;;;9.20;100.00;97782.41;5052162;28;20029;-77
2023/04/01 00:46:43;;;;;;;;;;;;;;;9.18;100.00;97786.88;5052603;28;20033;-77
2023/04/01 00:49:09;;;;;;;5.28;4.18;;;;;;;9.10;100.00;97753.69;5052538;28;19915;-77
2023/04/01 00:51:37;;;;;;;6.65;4.38;;;;;;;9.22;100.00;97775.34;5051877;28;20057;-77
2023/04/01 00:54:04;;;;;;;8.75;3.97;;;;;;;9.30;100.00;97778.22;5052111;28;20028;-77
2023/04/01 00:56:35;;;;;;;6.75;4.35;;;;;;;9.34;100.00;97773.63;5051679;28;20028;-77
2023/04/01 00:59:08;;;;;;;5.82;4.35;;;;;;;9.24;100.00;97757.88;5051920;28;20064;-77
2023/04/01 01:01:35;;;;;;;8.45;4.35;;;;;;;9.44;100.00;97780.69;5050889;28;20036;-76
2023/04/01 01:04:02;;;;;;;9.25;5.03;;;;;;;9.36;100.00;97753.59;5052018;28;20083;-77
2023/04/01 01:06:49;;;;;;;8.65;4.72;;;;;;;9.43;100.00;97770.38;5051771;28;20481;-77
2023/04/01 01:09:25;;;;;;;6.97;4.35;;;;;;;9.56;100.00;97784.13;5051599;28;20021;-77
2023/04/01 01:11:58;;;;;;;8.77;3.72;;;;;;;9.35;100.00;97752.72;5051829;28;20033;-77
2023/04/01 01:14:48;;;;;;;5.65;4.10;;;;;;;9.57;100.00;97774.59;5051641;28;20032;-76
2023/04/01 01:17:18;;;;;;;7.57;3.88;;;;;;;9.53;100.00;97771.38;5051810;28;20029;-77
2023/04/01 01:19:52;;;;;;;9.02;4.13;;;;;;;9.52;100.00;97774.91;5051710;28;20108;-76
2023/04/01 01:22:26;;;;;;;6.40;3.88;;;;;;;9.55;100.00;97766.06;5051704;28;20021;-77
2023/04/01 01:24:56;;;;;;;6.47;4.07;;;;;;;9.49;100.00;97769.94;5051779;28;20040;-76
2023/04/01 01:27:22;;;;;;;8.75;4.00;;;;;;;9.34;100.00;97752.84;5051414;28;20047;-76
2023/04/01 01:30:01;;;;;;;7.55;3.63;;;;;;;9.48;100.00;97773.47;5051580;28;20126;-76
2023/04/01 01:32:51;;;;;;;5.18;3.65;;;;;;;9.49;100.00;97769.94;5051371;28;20025;-76
2023/04/01 01:35:28;;;;;;;6.15;3.63;;;;;;;9.54;100.00;97769.63;5051216;28;20532;-76
2023/04/01 01:38:02;;;;;;;7.00;4.15;;;;;;;9.53;100.00;97758.41;5051738;28;20029;-76
2023/04/01 01:40:30;;;;;;;7.88;4.10;;;;;;;9.61;100.00;97763.03;5051370;28;20025;-76
2023/04/01 01:43:00;;;;;;;10.63;4.70;;;;;;;9.59;100.00;97751.91;5051718;28;20040;-77
2023/04/01 01:45:27;;;;;;;6.78;4.13;;;;;;;9.70;100.00;97763.19;5051413;28;20104;-77
2023/04/01 01:47:55;;;;;;;8.80;4.63;;;;;;;9.68;100.00;97753.84;5051530;28;20572;-76
2023/04/01 01:50:22;;;;;;;9.02;5.15;;;;;;;9.69;100.00;97765.88;5051238;28;20033;-76
2023/04/01 01:52:48;;;;;;;9.23;5.47;;;;;;;9.63;100.00;97750.75;5051390;28;20031;-76
2023/04/01 01:55:27;;;;;;;7.50;5.65;;;;;;;9.59;100.00;97749.31;5050974;28;20104;-77
2023/04/01 01:57:55;;;;;;;7.97;5.68;;;;;;;9.69;100.00;97750.28;5039832;28;20025;-77
2023/04/01 02:00:21;;;;;;;7.82;6.10;;;;;;;9.64;100.00;97750.63;5041127;28;20025;-77
2023/04/01 02:02:48;;;;;;;9.25;5.50;;;;;;;9.81;100.00;97764.16;5041563;28;20481;-77
2023/04/01 02:05:24;;;;;;;8.88;6.18;;;;;;;9.80;100.00;97765.13;5039878;28;20021;-76
2023/04/01 02:08:01;;;;;;;6.00;5.13;;;;;;;9.81;100.00;97765.00;5039785;28;20579;-77
2023/04/01 02:10:28;;;;;;;9.07;5.97;;;;;;;9.81;100.00;97764.16;5041278;28;20056;-77
2023/04/01 02:12:57;;;;;;;6.10;5.38;;;;;;;9.56;100.00;97726.97;5042462;28;20053;-77
2023/04/01 02:15:27;;;;;;;12.25;6.13;;;;;;;9.79;100.00;97753.06;5044273;28;20135;-77
2023/04/01 02:17:54;;;;;;;8.00;5.47;;;;;;;9.66;100.00;97729.75;5045436;28;20362;-77
2023/04/01 02:20:22;;;;;;;8.75;5.65;;;;;;;9.77;100.00;97740.16;5043651;28;20025;-77
2023/04/01 02:22:54;;;;;;;14.13;6.15;;;;;;;9.85;100.00;97748.22;5043919;28;20036;-77
2023/04/01 02:25:27;;;;;;;10.30;5.55;;;;;;;9.82;100.00;97745.00;5043900;28;20602;-77
2023/04/01 02:27:55;;;;;;;10.27;5.50;;;;;;;9.73;100.00;97736.97;5043332;28;20065;-77
2023/04/01 02:30:21;;;;;;;8.05;5.22;;;;;;;9.60;100.00;97712.81;5044263;28;20429;-77
2023/04/01 02:32:47;;;;;;;9.35;5.53;;;;;;;9.59;100.00;97711.16;5044886;28;20053;-77
2023/04/01 02:35:15;;;;;;;8.73;5.22;;;;;;;9.84;100.00;97756.16;5043216;28;20030;-76
2023/04/01 02:37:45;;;;;;;12.38;6.50;;;;;;;9.71;100.00;97732.81;5044359;28;20039;-77
2023/04/01 02:40:12;;;;;;;9.40;5.57;;;;;;;9.83;100.00;97749.28;5045260;28;20131;-77
2023/04/01 02:42:38;;;;;;;8.68;4.85;;;;;;;9.78;100.00;97743.63;5042961;28;20116;-77
2023/04/01 02:45:05;;;;;;;6.15;4.20;;;;;;;9.71;100.00;97736.25;5043855;28;20087;-77
2023/04/01 02:47:30;;;;;;;10.35;5.25;;;;;;;9.82;100.00;97753.66;5044776;28;20048;-77
2023/04/01 02:49:58;;;;;;;9.00;4.75;;;;;;;9.83;100.00;97752.72;5051650;28;20103;-77
2023/04/01 02:52:28;;;;;;;6.55;4.22;;;;;;;9.77;100.00;97744.53;5043623;28;20532;-77
2023/04/01 02:54:53;;;;;;;5.57;4.50;;;;;;;9.88;100.00;97762.78;5042050;28;20025;-77
2023/04/01 02:57:19;;;;;;;7.13;4.05;;;;;;;9.90;100.00;97760.88;5034991;28;20083;-77
2023/04/01 02:59:45;;;;;;;7.80;4.28;;;;;;;9.89;100.00;97762.66;5043391;28;20017;-77
2023/04/01 03:02:10;;;;;;;7.35;3.95;;;;;;;9.77;100.00;97747.13;5044419;28;20025;-77
2023/04/01 03:04:35;;;;;;;8.73;4.78;;;;;;;9.86;100.00;97769.84;5050849;28;20119;-77
2023/04/01 03:07:01;;;;;;;7.57;3.72;;;;;;;9.78;100.00;97754.00;5054214;28;20029;-77
2023/04/01 03:09:26;;;;;;;9.32;4.68;;;;;;;9.84;100.00;97756.97;5053822;28;20465;-75
2023/04/01 03:11:52;;;;;;;6.70;4.20;;;;;;;9.86;100.00;97775.91;5053838;28;20047;-77
2023/04/01 03:14:17;;;;;;;6.60;4.07;;;;;;;9.69;100.00;97742.50;5053746;28;20032;-77
2023/04/01 03:16:42;;;;;;;6.68;4.00;;;;;;;9.75;100.00;97752.44;5053472;28;20448;-77
2023/04/01 03:19:08;;;;;;;7.60;4.07;;;;;;;9.77;100.00;97755.75;5054176;28;20377;-77
2023/04/01 03:21:33;;;;;;;9.10;4.57;;;;;;;9.70;100.00;97744.16;5053590;28;20116;-77
2023/04/01 03:23:58;;;;;;;7.45;4.18;;;;;;;9.73;100.00;97754.31;5052592;28;20061;-77
2023/04/01 03:26:24;;;;;;;7.97;4.70;;;;;;;9.73;100.00;97749.97;5053197;28;20108;-78
2023/04/01 03:28:49;;;;;;;7.93;4.82;;;;;;;9.88;100.00;97774.00;5053468;28;20025;-77
2023/04/01 03:31:15;;;;;;;6.60;3.80;;;;;;;9.75;100.00;97752.44;5053359;28;20108;-77
2023/04/01 03:33:41;;;;;;;9.07;4.40;;;;;;;9.80;100.00;97760.75;5053135;28;20075;-76
2023/04/01 03:36:07;;;;;;;8.82;4.45;;;;;;;9.89;100.00;97773.06;5053605;28;20029;-76
2023/04/01 03:38:34;;;;;;;10.82;4.47;;;;;;;9.73;100.00;97749.13;5053216;28;20499;-76
2023/04/01 03:40:59;;;;;;;7.95;4.47;;;;;;;9.82;100.00;97769.28;5053397;28;20044;-76
2023/04/01 03:43:26;;;;;;;7.88;4.88;;;;;;;9.73;100.00;97746.53;5053019;28;20029;-76
2023/04/01 03:45:52;;;;;;;8.38;5.18;;;;;;;9.73;100.00;97752.56;5053157;28;20155;-76
2023/04/01 03:48:17;;;;;;;8.18;4.65;;;;;;;9.74;100.00;97756.81;5053400;28;20108;-76
2023/04/01 03:50:44;;;;;;;8.68;5.40;;;;;;;9.76;100.00;97751.50;5052961;28;20278;-75
2023/04/01 03:53:10;;;;;;;8.45;5.30;;;;;;;9.80;100.00;97771.13;5053162;28;20051;-76
2023/04/01 03:55:36;;;;;;;6.10;4.80;;;;;;;9.70;100.00;97758.00;5052841;28;20026;-75
2023/04/01 03:58:02;;;;;;;7.47;5.32;;;;;;;9.69;100.00;97755.47;5052804;28;20542;-76
2023/04/01 04:00:29;;;;;;;8.00;5.63;;;;;;;9.80;100.00;97775.50;5052703;28;20062;-76
2023/04/01 04:02:55;;;;;;;12.73;5.60;;;;;;;9.75;100.00;97770.66;5053185;28;20484;-76
2023/04/01 04:05:21;;;;;;;7.30;4.95;;;;;;;9.86;100.00;97785.44;5053106;28;20167;-76
2023/04/01 04:07:46;;;;;;;7.82;4.78;;;;;;;9.72;100.00;97774.28;5052616;28;20746;-76
2023/04/01 04:10:11;;;;;;;9.85;5.13;;;;;;;9.84;100.00;97790.78;5052761;28;20071;-76
2023/04/01 04:12:37;;;;;;;8.88;4.82;;;;;;;9.85;100.00;97792.41;5052430;28;20017;-76
2023/04/01 04:15:02;;;;;;;7.68;5.38;;;;;;;9.83;100.00;97796.91;5052637;28;20106;-76
2023/04/01 04:17:27;;;;;;;8.13;5.20;;;;;;;9.73;100.00;97778.56;5052399;28;20052;-76
2023/04/01 04:19:53;;;;;;;7.80;4.60;;;;;;;9.74;100.00;97769.00;5051474;28;20025;-75
2023/04/01 04:22:18;;;;;;;9.80;5.78;;;;;;;9.73;100.00;97773.38;5052672;28;20032;-76
2023/04/01 04:24:43;;;;;;;6.68;5.28;;;;;;;9.85;100.00;97796.81;5052570;28;20031;-76
2023/04/01 04:27:08;;;;;;;8.23;5.15;;;;;;;9.73;100.00;97780.31;5052565;28;20163;-76
2023/04/01 04:29:34;;;;;;;9.98;5.35;;;;;;;9.84;100.00;97798.56;5052119;28;20023;-76
2023/04/01 04:31:59;;;;;;;9.48;5.32;;;;;;;9.86;100.00;97799.31;5052470;28;20032;-76
2023/04/01 04:34:25;;;;;;;8.32;5.60;;;;;;;9.87;100.00;97798.34;5052246;28;20558;-76
2023/04/01 04:36:50;;;;;;;9.80;5.75;;;;;;;9.87;100.00;97797.53;5052608;28;20112;-76
2023/04/01 04:39:15;;;;;;;6.72;5.20;;;;;;;9.76;100.00;97777.50;5052292;28;20056;-76
2023/04/01 04:41:41;;;;;;;10.57;5.45;;;;;;;9.83;100.00;97794.31;5051915;28;20029;-76
2023/04/01 04:44:07;;;;;;;5.97;5.25;;;;;;;9.90;100.00;97799.88;5052089;28;20025;-76
2023/04/01 04:46:32;;;;;;;8.88;5.97;;;;;;;9.86;100.00;97794.09;5051959;28;20029;-76
2023/04/01 04:48:58;;;;;;;9.55;6.55;;;;;;;9.68;100.00;97759.03;5052019;28;20052;-76
2023/04/01 04:51:23;;;;;;;9.60;6.22;;;;;;;9.90;100.00;97802.47;5052079;28;20531;-75
2023/04/01 04:53:49;;;;;;;9.13;6.10;;;;;;;9.87;100.00;97803.56;5051894;28;20033;-76
2023/04/01 04:56:21;;;;;;;7.88;6.00;;;;;;;9.71;100.00;97775.25;5051976;28;20395;-76
2023/04/01 04:58:47;;;;;;;6.80;5.60;;;;;;;9.86;100.00;97799.31;5052013;28;20025;-76
2023/04/01 05:01:15;;;;;;;9.27;6.05;;;;;;;9.86;100.00;97801.91;5051887;28;20024;-76
2023/04/01 05:03:41;;;;;;;8.98;5.60;;;;;;;9.82;100.00;97784.88;5051799;28;20481;-76
2023/04/01 05:06:08;;;;;;;7.13;4.95;;;;;;;9.92;100.00;97801.44;5051970;28;20037;-75
2023/04/01 05:08:33;;;;;;;7.00;5.50;;;;;;;9.89;100.00;97803.44;5051584;28;20025;-75
2023/04/01 05:11:00;;;;;;;7.95;5.60;;;;;;;9.91;100.00;97809.38;5051749;28;20036;-76
2023/04/01 05:13:25;;;;;;;5.88;5.30;;;;;;;9.90;100.00;97805.94;5052097;28;20125;-76
2023/04/01 05:15:51;;;;;;;8.20;5.47;;;;;;;9.84;100.00;97802.94;5051874;28;20623;-76
2023/04/01 05:18:16;;;;;;;7.88;5.25;;;;;;;9.85;100.00;97791.59;5051966;28;20500;-75
2023/04/01 05:20:50;;;;;;;8.40;5.95;;;;;;;9.80;100.00;97788.50;5051423;28;20086;-76
2023/04/01 05:23:15;;;;;;;6.43;5.72;;;;;;;9.87;100.00;97797.53;5051995;28;20028;-76
2023/04/01 05:25:41;;;;;;;7.93;6.90;;;;;;;9.83;100.00;97788.28;5051409;28;20626;-76
2023/04/01 05:28:06;;;;;;;9.15;6.20;;;;;;;9.88;100.00;97805.22;5051697;28;20052;-76
2023/04/01 05:30:32;;;;;;;10.70;6.60;;;;;;;9.85;100.00;97796.81;5051400;28;20036;-76
2023/04/01 05:32:57;;;;;;;7.15;6.45;;;;;;;9.79;100.00;97790.28;5051623;28;20029;-76
2023/04/01 05:35:23;;;;;;;9.38;6.47;;;;;;;9.78;100.00;97795.63;5051607;28;20119;-76
2023/04/01 05:37:49;;;;;;;9.90;7.13;;;;;;;9.89;100.00;97809.47;5051383;28;20543;-75
2023/04/01 05:40:14;;;;;;;8.18;7.18;;;;;;;9.82;100.00;97795.28;5051520;28;20103;-76
2023/04/01 05:42:39;;;;;;;8.52;7.13;;;;;;;9.83;100.00;97802.13;5051504;28;20116;-76
2023/04/01 05:45:05;;;;;;;9.30;7.90;;;;;;;9.84;100.00;97798.56;5051692;28;20025;-76
2023/04/01 05:47:31;;;;;;;8.30;7.15;;;;;;;9.99;100.00;97823.47;5053748;28;20115;-76
2023/04/01 05:49:56;;;;;;;10.10;6.63;;;;;;;9.85;100.00;97792.41;5055168;28;20494;-76
2023/04/01 05:52:21;;;;;;;9.15;7.22;;;;;;;9.87;100.00;97800.13;5055387;28;20029;-76
2023/04/01 05:54:47;;;;;;;10.05;7.65;;;;;;;10.00;100.00;97825.13;5055038;28;20020;-76
2023/04/01 05:57:12;;;;;;;8.63;7.72;;;;;;;10.00;100.00;97824.28;5055465;28;20026;-76
2023/04/01 05:59:37;;;;;;;9.38;7.43;;;;;;;9.86;100.00;97801.91;5055196;28;20047;-76
2023/04/01 06:02:03;;;;;;;11.82;7.72;;;;;;;9.84;100.00;97801.19;5055307;28;20036;-76
2023/04/01 06:04:35;;;;;;;9.48;7.13;;;;;;;9.98;100.00;97826.97;5055027;28;20051;-76
2023/04/01 06:07:01;;;;;;;8.85;7.35;;;;;;;9.86;100.00;97799.31;5048775;28;20059;-75
2023/04/01 06:09:29;;;;;;;8.18;7.32;;;;;;;9.85;100.00;97804.59;5044089;28;20017;-75
2023/04/01 06:12:19;;;;;;;8.32;7.47;;;;;;;10.00;100.00;97821.69;5042952;28;20033;-75
2023/04/01 06:15:02;;;;;;;8.30;7.50;;;;;;;10.02;100.00;97835.41;5037302;28;20025;-75
2023/04/01 06:18:06;;;;;;;8.95;7.38;;;;;;;10.02;100.00;97835.41;5035045;28;20033;-75
2023/04/01 06:20:41;;;;;;;7.57;6.88;;;;;;;10.05;100.00;97832.59;5035157;28;20432;-75
2023/04/01 06:23:24;;;;;;;7.78;6.38;;;;;;;10.05;100.00;97839.56;5034968;28;20033;-75
2023/04/01 06:25:50;;;;;;;10.23;7.28;;;;;;;10.11;100.00;97839.09;5034660;28;20061;-75
2023/04/01 06:28:46;;;;;;;9.07;7.20;;;;;;;10.11;100.00;97842.56;5034829;28;20406;-76
2023/04/01 06:31:28;;;;;;;7.53;6.40;;;;;;;10.10;100.00;97848.69;5034754;28;20022;-75
2023/04/01 06:34:31;;;;;;;8.73;6.13;;;;;;;10.11;100.00;97850.34;5034647;28;20408;-75
2023/04/01 06:37:35;;;;;;;7.72;5.55;;;;;;;10.11;100.00;97847.75;5032060;28;20112;-76
2023/04/01 06:40:21;;;;;;;7.18;6.15;;;;;;;10.10;100.00;97837.44;4973338;28;20411;-76
2023/04/01 06:43:07;;;;;;;7.13;6.40;;;;;;;10.16;100.00;97850.00;4973309;28;20062;-75
2023/04/01 06:45:50;;;;;;;6.85;5.80;;;;;;;10.21;100.00;97842.69;4973257;28;20039;-76
2023/04/01 06:48:31;;;;;;;7.65;5.50;;;;;;;10.26;100.00;97847.59;4973179;28;20104;-76
2023/04/01 06:51:28;;;;;;;6.55;5.18;;;;;;;10.13;100.00;97830.25;4972859;28;20125;-75
2023/04/01 06:54:04;;;;;;;6.40;5.00;;;;;;;10.19;100.00;97839.38;4982894;28;20461;-75
2023/04/01 06:56:32;;;;;;;8.57;6.28;;;;;;;10.16;100.00;97829.19;4992377;28;20445;-75
2023/04/01 06:59:02;;;;;;;5.65;5.15;;;;;;;10.22;100.00;97839.97;4991816;28;20117;-76
2023/04/01 07:01:50;;;;;;;7.50;5.47;;;;;;;10.28;100.00;97853.50;4992124;28;20039;-75
2023/04/01 07:04:32;;;;;;;6.50;5.43;;;;;;;10.31;100.00;97853.28;4992019;28;20030;-76
2023/04/01 07:07:37;;;;;;;7.97;5.30;;;;;;;10.33;100.00;97848.81;4991672;28;20049;-76
2023/04/01 07:10:16;;;;;;;6.20;5.57;;;;;;;10.37;100.00;97855.44;4992166;28;20030;-77
2023/04/01 07:12:54;;;;;;;6.40;4.47;;;;;;;10.24;100.00;97837.28;4991645;28;20070;-76
2023/04/01 07:15:28;;;;;;;4.35;3.95;;;;;;;10.21;100.00;97835.72;5034073;28;20093;-76
2023/04/01 07:18:02;;;;;;;4.97;4.47;;;;;;;10.21;100.00;97834.88;5033342;28;20037;-76
2023/04/01 07:20:31;;;;;;;4.40;4.00;;;;;;;10.24;100.00;97845.06;5033716;28;20025;-76
2023/04/01 07:23:00;;;;;;;5.07;4.43;;;;;;;10.26;100.00;97850.19;5033595;28;20116;-76
2023/04/01 07:25:38;;;;;;;5.82;4.47;;;;;;;10.19;100.00;97834.16;5033773;28;20026;-76
2023/04/01 07:28:12;;;;;;;4.38;3.97;;;;;;;10.27;100.00;97850.06;5033494;28;20045;-76
2023/04/01 07:30:51;;;;;;;6.88;5.25;;;;;;;10.38;100.00;97870.09;5033391;28;20029;-77
2023/04/01 07:33:44;;;;;;;6.05;5.50;;;;;;;10.38;100.00;97865.72;5033716;28;20057;-76
2023/04/01 07:36:32;;;;;;;5.10;4.60;;;;;;;10.29;100.00;97847.38;5033452;28;20395;-76
2023/04/01 07:39:23;;;;;;;5.97;4.78;;;;;;;10.32;100.00;97854.94;5033107;28;20037;-76
2023/04/01 07:41:51;;;;;;;6.50;5.63;;;;;;;10.45;100.00;97866.09;5033453;28;20044;-76
2023/04/01 07:44:22;;;;;;;9.93;6.32;;;;;;;10.47;100.00;97866.81;5033511;28;20038;-76
2023/04/01 07:47:04;;;;;;;7.30;6.05;;;;;;;10.35;100.00;97844.28;5033134;28;20022;-77
2023/04/01 07:50:02;;;;;;;7.55;5.75;;;;;;;10.47;100.00;97872.00;5032993;28;20496;-76
2023/04/01 07:52:40;;;;;;;7.97;7.13;;;;;;;10.58;100.00;97868.63;5030580;28;20044;-77
2023/04/01 07:55:17;;;;;;;8.35;6.05;;;;;;;10.61;100.00;97871.81;5030573;28;20083;-77
2023/04/01 07:57:56;;;;;;;8.55;6.25;;;;;;;10.63;100.00;97872.53;5030367;28;20467;-77
2023/04/01 08:00:27;;;;;;;6.25;5.22;;;;;;;10.63;100.00;97880.34;5030592;28;20041;-77
2023/04/01 08:03:20;;;;;;;6.13;5.53;;;;;;;10.66;100.00;97881.88;5030248;28;20504;-76
2023/04/01 08:06:03;;;;;;;6.47;5.90;;;;;;;10.64;100.00;97879.38;5030611;28;20033;-77
2023/04/01 08:08:52;;;;;;;11.77;9.73;;;;;;;10.66;100.00;97887.06;5030539;28;20112;-76
2023/04/01 08:11:35;;;;;;;7.18;5.85;;;;;;;10.57;100.00;97890.38;5030038;28;20088;-76
2023/04/01 08:14:31;;;;;;;7.07;6.03;;;;;;;10.46;100.00;97870.38;5030350;28;20033;-76
2023/04/01 08:17:05;;;;;;;8.75;7.32;;;;;;;10.61;100.00;97890.03;5029780;28;20042;-76
2023/04/01 08:19:40;;;;;;;9.35;8.32;;;;;;;10.66;100.00;97892.28;5030056;28;20036;-76
2023/04/01 08:22:17;;;;;;;13.40;10.30;;;;;;;10.56;100.00;97892.16;5030218;28;20733;-76
2023/04/01 08:24:45;;;;;;;13.18;10.35;;;;;;;10.61;100.00;97892.63;5043500;28;20028;-76
2023/04/01 08:27:33;;;;;;;11.57;10.38;;;;;;;10.59;100.00;97894.53;5033013;28;20054;-76
2023/04/01 08:30:19;;;;;;;12.77;8.70;;;;;;;10.60;100.00;97906.59;5033793;28;20041;-76
2023/04/01 08:33:08;;;;;;;7.45;6.75;;;;;;;10.62;100.00;97898.66;5032243;28;20032;-76
2023/04/01 08:35:55;;;;;;;7.45;5.50;;;;;;;10.66;100.00;97900.09;5032563;28;20037;-76
2023/04/01 08:38:28;;;;;;;6.18;5.10;;;;;;;10.65;100.00;97891.47;5032428;28;20025;-82
2023/04/01 08:40:53;;;;;;;11.45;5.80;;;;;;;10.82;100.00;97911.03;5031871;28;20121;-82
2023/04/01 08:44:04;;;;;;;7.13;5.07;;;;;;;10.96;100.00;97910.00;5032121;28;20529;-82
2023/04/01 08:46:59;;;;;;;6.53;4.78;;;;;;;11.10;100.00;97914.16;5032320;28;20021;-77
2023/04/01 08:49:27;;;;;;;6.28;5.35;;;;;;;11.14;100.00;97913.78;5049546;28;20045;-77
2023/04/01 08:52:20;;;;;;;4.60;4.05;;;;;;;11.11;100.00;97903.59;5049055;28;20033;-77
2023/04/01 08:54:49;;;;;;;3.85;3.45;;;;;;;11.22;100.00;97915.81;5049283;28;20051;-76
2023/04/01 08:57:33;;;;;;;4.95;3.50;;;;;;;11.22;100.00;97923.63;5049521;28;20025;-77
2023/04/01 09:00:27;;;;;;;4.63;3.45;;;;;;;11.08;100.00;97900.41;5049362;28;20067;-77
2023/04/01 09:03:31;;;;;;;4.50;3.08;;;;;;;11.17;100.00;97924.00;5045740;28;20060;-77
2023/04/01 09:06:12;;;;;;;4.10;3.47;;;;;;;11.05;100.00;97900.66;5046041;28;20370;-77
2023/04/01 09:08:50;;;;;;;8.18;6.22;;;;;;;11.19;100.00;97929.06;5049370;28;20021;-77
2023/04/01 09:11:46;;;;;;;10.63;6.57;;;;;;;11.04;100.00;97905.03;5049243;28;20025;-77
2023/04/01 09:14:17;;;;;;;7.30;5.30;;;;;;;11.14;100.00;97931.22;5049283;28;20416;-77
2023/04/01 09:17:04;;;;;;;16.83;11.33;;;;;;;11.08;100.00;97939.47;5049365;28;20550;-77
2023/04/01 09:19:32;;;;;;;8.15;4.40;;;;;;;11.03;100.00;97942.44;5049348;28;20037;-77
2023/04/01 09:22:29;;;;;;;4.95;3.80;;;;;;;11.03;100.00;97936.41;5050343;28;20036;-77
2023/04/01 09:25:22;;;;;;;3.85;3.15;;;;;;;11.05;100.00;97944.94;5053190;28;20521;-77
2023/04/01 09:27:55;;;;;;;6.32;4.13;;;;;;;11.10;100.00;97937.59;5051716;28;20056;-77
2023/04/01 09:30:55;;;;;;;3.85;3.53;;;;;;;11.01;100.00;97926.09;5055746;28;20029;-77
2023/04/01 09:33:29;;;;;;;3.88;3.47;;;;;;;11.19;100.00;97942.94;5055642;28;20221;-77
2023/04/01 09:36:04;;;;;;;4.15;3.80;;;;;;;11.17;100.00;97949.22;5055518;28;20031;-77
2023/04/01 09:38:48;;;;;;;3.67;3.22;;;;;;;11.27;100.00;97946.75;5055820;28;20082;-77
2023/04/01 09:41:30;;;;;;;4.38;3.53;;;;;;;11.39;100.00;97951.00;5055592;28;20021;-77
2023/04/01 09:44:01;;;;;;;;;;;;;;;11.42;100.00;97963.81;5055656;28;20033;-77
2023/04/01 09:46:52;;;;;;;4.10;3.45;;;;;;;11.37;100.00;97938.09;5055632;28;19909;-77
2023/04/01 09:49:23;;;;;;;3.78;2.92;;;;;;;11.55;100.00;97953.28;5055561;28;20029;-77
2023/04/01 09:52:09;;;;;;;4.72;3.70;;;;;;;11.57;100.00;97959.19;5055164;28;20098;-77
2023/04/01 09:54:41;;;;;;;5.22;3.17;;;;;;;11.64;100.00;97956.00;5055361;28;20025;-77
2023/04/01 09:57:40;;;;;;;5.60;4.07;;;;;;;11.65;100.00;97964.63;5055199;28;20052;-77
2023/04/01 10:00:33;;;;;;;5.20;3.80;;;;;;;11.67;100.00;97953.16;5055018;28;20037;-77
2023/04/01 10:03:26;;;;;;;4.38;3.70;;;;;;;11.75;100.00;97952.53;5055080;28;20036;-77
2023/04/01 10:06:20;;;;;;;4.55;4.15;;;;;;;11.81;100.00;97959.06;5054902;28;20059;-77
2023/04/01 10:09:23;;;;;;;3.78;3.47;;;;;;;11.85;100.00;97958.72;5050929;28;20120;-76
2023/04/01 10:12:14;;;;;;;3.83;3.42;;;;;;;11.88;100.00;97966.31;5052219;28;20532;-76
2023/04/01 10:15:22;;;;;;;4.32;3.95;;;;;;;11.90;100.00;97966.19;5052376;28;20064;-76
2023/04/01 10:18:04;;;;;;;4.60;4.20;;;;;;;11.90;100.00;97945.31;5052234;28;20139;-76
2023/04/01 10:21:00;;;;;;;5.18;4.72;;;;;;;12.13;100.00;97974.78;5051910;28;20041;-75
2023/04/01 10:23:57;;;;;;;4.53;4.10;;;;;;;12.29;100.00;97972.63;5052182;28;20025;-76
2023/04/01 10:26:59;;;;;;;4.45;3.70;;;;;;;12.38;100.00;97974.47;4973196;28;20066;-76
2023/04/01 10:29:33;;;;;;;4.45;3.35;;;;;;;12.49;100.00;97971.84;4972528;28;20039;-76
2023/04/01 10:32:09;;;;;;;3.80;3.47;;;;;;;12.51;100.00;97976.94;4969777;28;20503;-76
2023/04/01 10:34:53;;;;;;;5.65;5.03;;;;;;;12.60;100.00;97978.81;4973008;28;20046;-76
2023/04/01 10:37:20;;;;;;;7.63;5.88;;;;;;;12.73;100.00;97976.84;4972817;28;20476;-76
2023/04/01 10:40:03;;;;;;;5.45;4.13;;;;;;;12.88;100.00;97969.53;4972816;28;20384;-76
2023/04/01 10:43:06;;;;;;;5.53;4.65;;;;;;;13.03;100.00;97977.06;4972592;28;20034;-77
2023/04/01 10:45:46;;;;;;;4.57;4.18;;;;;;;13.10;100.00;97973.78;4972862;28;20506;-78
2023/04/01 10:48:15;;;;;;;6.00;4.17;;;;;;;12.92;100.00;97954.44;4972314;28;20495;-77
2023/04/01 10:51:11;;;;;;;3.85;3.45;;;;;;;12.89;100.00;97980.81;4972557;28;20038;-77
2023/04/01 10:53:49;;;;;;;4.95;3.33;;;;;;;12.81;100.00;97975.38;4972628;28;20045;-77
2023/04/01 10:56:30;;;;;;;4.70;3.72;;;;;;;12.76;100.00;97978.38;4972312;28;20442;-78
2023/04/01 10:59:16;;;;;;;5.15;3.65;;;;;;;12.50;100.00;97975.28;4972307;28;20394;-79
2023/04/01 11:02:13;;;;;;;3.55;3.20;;;;;;;12.43;100.00;97974.97;4975650;28;20034;-79
2023/04/01 11:05:06;;;;;;;3.60;3.22;;;;;;;12.54;100.00;97988.91;5033841;28;20030;-78
2023/04/01 11:08:02;;;;;;;3.58;2.40;;;;;;;12.59;100.00;97971.09;5033853;28;20025;-76
2023/04/01 11:10:59;;;;;;;3.50;2.30;;;;;;;12.71;100.00;97993.59;5033562;28;20040;-78
2023/04/01 11:13:46;;;;;;;4.03;2.72;;;;;;;12.68;100.00;97989.47;5033634;28;20457;-77
2023/04/01 11:16:34;;;;;;;3.22;2.42;;;;;;;12.67;100.00;97995.63;5042305;28;20125;-74
2023/04/01 11:19:38;;;;;;;2.65;2.45;;;;;;;12.56;100.00;97987.84;5046847;28;20091;-78
2023/04/01 11:22:27;;;;;;;3.53;3.22;;;;;;;12.54;100.00;97991.53;5039210;28;20038;-76
2023/04/01 11:25:17;;;;;;;4.78;4.03;;;;;;;12.54;100.00;97997.56;5047183;28;20484;-77
2023/04/01 11:28:01;;;;;;;7.30;6.60;;;;;;;12.58;100.00;97992.94;5033332;28;20085;-76
2023/04/01 11:30:55;;;;;;;8.75;7.57;;;;;;;12.66;100.00;98001.81;5040290;28;20078;-76
2023/04/01 11:33:43;;;;;;;5.78;5.13;;;;;;;12.76;100.00;98004.50;5053001;28;20036;-77
2023/04/01 11:36:39;;;;;;;4.10;3.70;;;;;;;12.86;100.00;98001.97;5053092;28;20036;-77
2023/04/01 11:39:45;;;;;;;3.35;3.05;;;;;;;12.94;100.00;98008.22;5045597;28;20033;-77
2023/04/01 11:42:39;;;;;;;7.10;6.40;;;;;;;12.96;100.00;98005.47;5032437;28;20037;-77
2023/04/01 11:45:13;;;;;;;5.18;4.68;;;;;;;13.04;100.00;98004.84;5032177;28;20033;-77
2023/04/01 11:48:11;;;;;;;3.75;3.30;;;;;;;13.08;100.00;98009.69;5033270;28;20043;-79
2023/04/01 11:51:01;;;;;;;5.10;4.13;;;;;;;12.98;99.98;97993.97;5033003;28;20057;-78
2023/04/01 11:53:41;;;;;;;4.28;3.88;;;;;;;13.09;100.00;98016.56;5032875;28;20061;-79
2023/04/01 11:56:27;;;;;;;4.32;3.92;;;;;;;13.08;100.00;98011.47;5040061;28;20031;-78
2023/04/01 11:59:40;;;;;;;6.70;5.30;;;;;;;13.01;100.00;98011.16;5052916;28;20060;-78
2023/04/01 12:02:20;;;;;;;6.75;5.25;;;;;;;12.85;100.00;97993.31;5050056;28;20126;-78
2023/04/01 12:04:45;;;;;;;7.47;5.15;;;;;;;13.04;100.00;98015.31;5050298;28;20040;-78
2023/04/01 12:07:47;;;;;;;7.80;6.07;;;;;;;13.03;100.00;98011.88;5049970;28;20416;-78